createdAt,value
2019-03-06T00:02:13.646Z,99708.83
2019-03-06T00:04:40.288Z,99701.86
2019-03-06T00:07:07.203Z,99702.36
2019-03-06T00:09:33.848Z,99704.22
2019-03-06T00:12:00.501Z,99709.20
2019-03-06T00:14:27.093Z,99709.86
2019-03-06T00:16:54.553Z,99708.80
2019-03-06T00:19:21.122Z,99730.12
2019-03-06T00:21:47.846Z,99726.41
2019-03-06T00:24:14.616Z,99731.83
2019-03-06T00:26:41.387Z,99739.05
2019-03-06T00:29:08.072Z,99735.73
2019-03-06T00:31:35.014Z,99742.89
2019-03-06T00:34:01.666Z,99737.16
2019-03-06T00:36:30.392Z,99742.02
2019-03-06T00:38:57.256Z,99738.38
2019-03-06T00:41:25.792Z,99743.22
2019-03-06T00:43:52.413Z,99751.86
2019-03-06T00:46:19.129Z,99743.88
2019-03-06T00:48:45.727Z,99750.66
2019-03-06T00:51:12.409Z,99761.07
2019-03-06T00:53:39.132Z,99767.38
2019-03-06T00:56:06.026Z,99763.09
2019-03-06T00:58:32.799Z,99767.78
2019-03-06T01:00:59.579Z,99770.55
2019-03-06T01:03:26.311Z,99777.41
2019-03-06T01:05:53.214Z,99775.84
2019-03-06T01:08:20.091Z,99786.62
2019-03-06T01:10:46.891Z,99781.05
2019-03-06T01:13:13.494Z,99777.61
2019-03-06T01:15:40.289Z,99779.86
2019-03-06T01:18:06.995Z,99790.28
2019-03-06T01:20:33.885Z,99793.58
2019-03-06T01:23:00.657Z,99795.98
2019-03-06T01:25:27.430Z,99792.59
2019-03-06T01:27:54.437Z,99793.22
2019-03-06T01:30:25.559Z,99794.46
2019-03-06T01:32:54.301Z,99795.66
2019-03-06T01:35:22.803Z,99802.84
2019-03-06T01:37:51.390Z,99807.41
2019-03-06T01:40:20.309Z,99807.55
2019-03-06T01:42:48.925Z,99815.12
2019-03-06T01:45:15.815Z,99811.48
2019-03-06T01:47:42.399Z,99820.73
2019-03-06T01:50:10.467Z,99828.14
2019-03-06T01:52:37.046Z,99830.80
2019-03-06T01:55:09.384Z,99834.50
2019-03-06T01:57:36.113Z,99837.16
2019-03-06T02:00:08.051Z,99837.95
2019-03-06T02:02:34.928Z,99843.28
2019-03-06T02:05:01.636Z,99849.28
2019-03-06T02:07:28.890Z,99852.72
2019-03-06T02:09:55.860Z,99858.16
2019-03-06T02:12:22.642Z,99858.11
2019-03-06T02:14:49.451Z,99855.62
2019-03-06T02:17:16.355Z,99860.50
2019-03-06T02:19:43.112Z,99865.09
2019-03-06T02:22:10.015Z,99874.48
2019-03-06T02:24:36.697Z,99872.80
2019-03-06T02:27:03.514Z,99879.35
2019-03-06T02:29:30.132Z,99886.37
2019-03-06T02:31:56.917Z,99887.74
2019-03-06T02:34:23.862Z,99881.82
2019-03-06T02:36:50.610Z,99886.01
2019-03-06T02:39:17.276Z,99892.35
2019-03-06T02:41:43.849Z,99891.64
2019-03-06T02:44:11.602Z,99906.67
2019-03-06T02:46:40.086Z,99903.43
2019-03-06T02:49:06.820Z,99899.70
2019-03-06T02:51:33.677Z,99916.13
2019-03-06T02:54:00.418Z,99911.16
2019-03-06T02:57:23.532Z,99915.32
2019-03-06T02:59:52.148Z,99915.37
2019-03-06T03:02:20.839Z,99937.46
2019-03-06T03:04:49.313Z,99939.06
2019-03-06T03:07:15.894Z,99943.58
2019-03-06T03:09:42.672Z,99962.05
2019-03-06T03:12:11.245Z,99963.95
2019-03-06T03:14:38.126Z,99979.95
2019-03-06T03:17:06.047Z,99985.89
2019-03-06T03:19:32.919Z,99987.48
2019-03-06T03:21:59.914Z,99997.52
2019-03-06T03:24:26.503Z,100001.70
2019-03-06T03:26:53.124Z,100000.61
2019-03-06T03:29:19.853Z,100014.20
2019-03-06T03:31:46.570Z,100022.07
2019-03-06T03:34:13.458Z,100019.38
2019-03-06T03:36:40.205Z,100030.95
2019-03-06T03:39:07.438Z,100041.53
2019-03-06T03:41:34.676Z,100036.62
2019-03-06T03:44:01.257Z,100056.30
2019-03-06T03:46:28.121Z,100059.94
2019-03-06T03:48:54.698Z,100067.50
2019-03-06T03:51:21.677Z,100069.53
2019-03-06T03:53:48.649Z,100066.65
2019-03-06T03:56:15.327Z,100079.53
2019-03-06T03:58:42.096Z,100085.55
2019-03-06T04:01:08.954Z,100088.69
2019-03-06T04:03:35.537Z,100087.50
2019-03-06T04:06:02.128Z,100094.85
2019-03-06T04:08:28.757Z,100100.84
2019-03-06T04:10:55.400Z,100103.59
2019-03-06T04:13:22.059Z,100111.83
2019-03-06T04:15:48.914Z,100115.05
2019-03-06T04:18:15.494Z,100118.08
2019-03-06T04:20:42.269Z,100123.34
2019-03-06T04:23:09.128Z,100125.52
2019-03-06T04:25:35.905Z,100139.87
2019-03-06T04:28:02.666Z,100135.44
2019-03-06T04:30:29.301Z,100144.03
2019-03-06T04:32:55.979Z,100155.45
2019-03-06T04:35:22.715Z,100162.69
2019-03-06T04:37:49.765Z,100164.08
2019-03-06T04:40:16.995Z,100173.05
2019-03-06T04:42:43.787Z,100174.80
2019-03-06T04:45:15.031Z,100180.78
2019-03-06T04:47:41.609Z,100184.70
2019-03-06T04:50:11.915Z,100177.89
2019-03-06T04:52:40.220Z,100189.20
2019-03-06T04:55:09.418Z,100193.59
2019-03-06T04:57:37.325Z,100190.05
2019-03-06T05:00:09.654Z,100194.99
2019-03-06T05:02:36.513Z,100198.80
2019-03-06T05:05:04.009Z,100209.79
2019-03-06T05:07:30.577Z,100205.66
2019-03-06T05:09:57.216Z,100213.30
2019-03-06T05:12:23.786Z,100207.98
2019-03-06T05:14:50.420Z,100217.42
2019-03-06T05:17:18.979Z,100206.34
2019-03-06T05:19:46.103Z,100215.45
2019-03-06T05:22:12.771Z,100212.61
2019-03-06T05:24:39.531Z,100223.03
2019-03-06T05:27:06.447Z,100230.11
2019-03-06T05:29:33.033Z,100234.88
2019-03-06T05:32:05.322Z,100235.70
2019-03-06T05:34:32.228Z,100230.27
2019-03-06T05:37:04.587Z,100237.09
2019-03-06T05:39:31.173Z,100248.03
2019-03-06T05:41:57.806Z,100260.80
2019-03-06T05:44:24.730Z,100261.72
2019-03-06T05:46:51.638Z,100262.05
2019-03-06T05:49:18.228Z,100270.96
2019-03-06T05:51:44.984Z,100277.75
2019-03-06T05:54:11.598Z,100280.02
2019-03-06T05:56:38.159Z,100290.75
2019-03-06T05:59:06.076Z,100294.31
2019-03-06T06:01:32.915Z,100308.60
2019-03-06T06:03:59.492Z,100312.16
2019-03-06T06:06:26.056Z,100317.73
2019-03-06T06:08:52.767Z,100320.00
2019-03-06T06:11:19.486Z,100335.43
2019-03-06T06:13:46.079Z,100339.81
2019-03-06T06:16:12.731Z,100344.59
2019-03-06T06:18:39.558Z,100348.16
2019-03-06T06:21:08.238Z,100348.48
2019-03-06T06:23:36.746Z,100347.62
2019-03-06T06:26:03.441Z,100351.06
2019-03-06T06:28:29.984Z,100349.75
2019-03-06T06:30:56.651Z,100355.86
2019-03-06T06:33:23.284Z,100351.08
2019-03-06T06:35:49.904Z,100364.50
2019-03-06T06:38:16.507Z,100372.64
2019-03-06T06:40:43.063Z,100374.91
2019-03-06T06:43:09.704Z,100380.94
2019-03-06T06:45:37.899Z,100384.94
2019-03-06T06:48:09.309Z,100380.48
2019-03-06T06:50:41.844Z,100385.63
2019-03-06T06:53:12.578Z,100389.70
2019-03-06T06:55:45.511Z,100388.60
2019-03-06T06:58:17.858Z,100398.51
2019-03-06T07:00:52.232Z,100410.84
2019-03-06T07:03:26.793Z,100415.09
2019-03-06T07:05:55.490Z,100412.99
2019-03-06T07:08:24.032Z,100423.25
2019-03-06T07:10:52.757Z,100422.05
2019-03-06T07:13:21.251Z,100424.27
2019-03-06T07:15:49.726Z,100436.43
2019-03-06T07:18:18.355Z,100434.38
2019-03-06T07:20:47.099Z,100441.05
2019-03-06T07:23:15.905Z,100444.29
2019-03-06T07:25:44.647Z,100452.24
2019-03-06T07:28:13.230Z,100456.27
2019-03-06T07:30:41.854Z,100452.92
2019-03-06T07:33:10.931Z,100452.06
2019-03-06T07:35:45.287Z,100466.02
2019-03-06T07:38:12.088Z,100468.66
2019-03-06T07:40:41.249Z,100464.84
2019-03-06T07:43:09.831Z,100475.29
2019-03-06T07:45:38.677Z,100482.13
2019-03-06T07:48:07.260Z,100485.42
2019-03-06T07:50:35.872Z,100489.73
2019-03-06T07:53:10.181Z,100495.58
2019-03-06T07:55:38.774Z,100492.34
2019-03-06T07:58:11.242Z,100496.05
2019-03-06T08:00:37.916Z,100503.28
2019-03-06T08:03:05.989Z,100502.69
2019-03-06T08:05:32.598Z,100499.41
2019-03-06T08:07:59.264Z,100516.00
2019-03-06T08:10:28.012Z,100523.75
2019-03-06T08:12:56.806Z,100527.09
2019-03-06T08:15:25.709Z,100533.47
2019-03-06T08:17:52.355Z,100535.71
2019-03-06T08:20:21.185Z,100537.03
2019-03-06T08:22:49.683Z,100543.16
2019-03-06T08:25:18.492Z,100545.69
2019-03-06T08:27:45.568Z,100543.41
2019-03-06T08:30:12.625Z,100544.41
2019-03-06T08:32:39.481Z,100536.75
2019-03-06T08:35:10.328Z,100541.38
2019-03-06T08:37:37.299Z,100538.50
2019-03-06T08:40:08.436Z,100537.77
2019-03-06T08:42:35.625Z,100538.78
2019-03-06T08:45:07.395Z,100543.00
2019-03-06T08:47:36.401Z,100545.39
2019-03-06T08:50:09.209Z,100544.52
2019-03-06T08:52:37.906Z,100546.50
2019-03-06T08:55:11.062Z,100552.45
2019-03-06T08:57:40.020Z,100550.88
2019-03-06T09:00:14.310Z,100554.67
2019-03-06T09:02:43.637Z,100559.96
2019-03-06T09:05:12.670Z,100560.51
2019-03-06T09:07:41.663Z,100561.90
2019-03-06T09:10:11.336Z,100557.82
2019-03-06T09:12:40.086Z,100569.89
2019-03-06T09:15:13.496Z,100566.14
2019-03-06T09:17:42.158Z,100580.80
2019-03-06T09:20:11.305Z,100574.92
2019-03-06T09:22:39.893Z,100573.04
2019-03-06T09:25:09.583Z,100573.91
2019-03-06T09:27:38.277Z,100579.43
2019-03-06T09:30:15.964Z,100583.37
2019-03-06T09:32:42.367Z,100588.82
2019-03-06T09:35:12.291Z,100590.13
2019-03-06T09:37:41.011Z,100591.41
2019-03-06T09:40:10.064Z,100580.38
2019-03-06T09:42:38.991Z,100586.75
2019-03-06T09:45:09.603Z,100592.19
2019-03-06T09:47:38.127Z,100598.78
2019-03-06T09:50:10.832Z,100598.72
2019-03-06T09:52:39.497Z,100602.95
2019-03-06T09:55:10.418Z,100604.20
2019-03-06T09:57:39.264Z,100602.66
2019-03-06T10:00:12.575Z,100610.23
2019-03-06T10:02:41.178Z,100612.08
2019-03-06T10:05:10.196Z,100613.27
2019-03-06T10:07:38.795Z,100615.33
2019-03-06T10:10:10.392Z,100624.80
2019-03-06T10:12:47.361Z,100631.80
2019-03-06T10:15:11.805Z,100643.27
2019-03-06T10:17:40.892Z,100637.74
2019-03-06T10:20:13.448Z,100640.72
2019-03-06T10:22:40.121Z,100645.98
2019-03-06T10:25:07.603Z,100650.00
2019-03-06T10:27:34.398Z,100641.42
2019-03-06T10:30:03.741Z,100647.85
2019-03-06T10:32:31.725Z,100647.29
2019-03-06T10:34:58.438Z,100654.31
2019-03-06T10:37:25.144Z,100655.52
2019-03-06T10:39:53.183Z,100661.92
2019-03-06T10:42:19.907Z,100669.69
2019-03-06T10:44:46.829Z,100672.48
2019-03-06T10:47:13.414Z,100666.38
2019-03-06T10:49:41.463Z,100668.52
2019-03-06T10:52:08.293Z,100663.38
2019-03-06T10:54:44.320Z,100668.73
2019-03-06T10:57:05.671Z,100669.98
2019-03-06T10:59:32.752Z,100661.64
2019-03-06T11:01:59.779Z,100662.50
2019-03-06T11:04:28.693Z,100663.97
2019-03-06T11:06:55.750Z,100666.89
2019-03-06T11:09:24.545Z,100663.06
2019-03-06T11:11:51.591Z,100657.33
2019-03-06T11:14:18.386Z,100661.38
2019-03-06T11:16:45.496Z,100656.05
2019-03-06T11:19:13.284Z,100660.28
2019-03-06T11:21:40.194Z,100658.83
2019-03-06T11:24:07.465Z,100661.73
2019-03-06T11:26:35.107Z,100660.97
2019-03-06T11:29:07.136Z,100652.41
2019-03-06T11:31:34.311Z,100639.67
2019-03-06T11:34:01.331Z,100636.98
2019-03-06T11:36:31.426Z,100647.00
2019-03-06T11:38:58.358Z,100643.34
2019-03-06T11:41:25.364Z,100641.60
2019-03-06T11:43:52.366Z,100644.55
2019-03-06T11:46:19.321Z,100648.99
2019-03-06T11:48:46.204Z,100643.95
2019-03-06T11:51:13.174Z,100652.11
2019-03-06T11:53:40.103Z,100653.06
2019-03-06T11:56:07.682Z,100656.66
2019-03-06T11:58:34.845Z,100652.11
2019-03-06T12:01:08.301Z,100654.62
2019-03-06T12:03:39.026Z,100658.97
2019-03-06T12:06:05.927Z,100655.49
2019-03-06T12:08:33.087Z,100653.18
2019-03-06T12:10:59.748Z,100651.25
2019-03-06T12:13:26.588Z,100649.63
2019-03-06T12:15:53.646Z,100644.15
2019-03-06T12:18:22.528Z,100645.47
2019-03-06T12:20:49.620Z,100645.28
2019-03-06T12:23:16.732Z,100644.70
2019-03-06T12:25:43.610Z,100645.45
2019-03-06T12:28:13.436Z,100632.03
2019-03-06T12:30:41.014Z,100637.09
2019-03-06T12:33:13.849Z,100635.80
2019-03-06T12:35:40.913Z,100632.47
2019-03-06T12:38:07.572Z,100638.23
2019-03-06T12:40:34.472Z,100646.60
2019-03-06T12:43:01.421Z,100645.00
2019-03-06T12:45:28.510Z,100647.31
2019-03-06T12:48:00.818Z,100639.91
2019-03-06T12:50:33.858Z,100639.11
2019-03-06T12:53:00.754Z,100635.69
2019-03-06T12:55:27.622Z,100629.83
2019-03-06T12:57:59.283Z,100620.86
2019-03-06T13:00:25.373Z,100620.02
2019-03-06T13:02:52.665Z,100621.80
2019-03-06T13:05:22.032Z,100619.61
2019-03-06T13:07:48.883Z,100613.87
2019-03-06T13:10:17.345Z,100609.72
2019-03-06T13:12:45.506Z,100614.02
2019-03-06T13:15:17.854Z,100613.70
2019-03-06T13:17:44.712Z,100608.44
2019-03-06T13:20:12.536Z,100602.41
2019-03-06T13:22:39.792Z,100594.91
2019-03-06T13:25:09.678Z,100607.28
2019-03-06T13:27:37.450Z,100611.67
2019-03-06T13:30:11.427Z,100605.35
2019-03-06T13:32:39.926Z,100617.20
2019-03-06T13:35:07.725Z,100616.13
2019-03-06T13:37:34.448Z,100604.39
2019-03-06T13:40:05.456Z,100600.52
2019-03-06T13:42:32.326Z,100608.81
2019-03-06T13:45:06.760Z,100608.98
2019-03-06T13:47:34.456Z,100611.80
2019-03-06T13:50:01.557Z,100603.09
2019-03-06T13:52:30.343Z,100605.97
2019-03-06T13:54:57.132Z,100596.12
2019-03-06T13:57:23.932Z,100595.80
2019-03-06T13:59:51.702Z,100599.06
2019-03-06T14:02:18.762Z,100587.13
2019-03-06T14:04:45.569Z,100592.58
2019-03-06T14:07:12.288Z,100596.52
2019-03-06T14:09:40.166Z,100595.56
2019-03-06T14:12:07.053Z,100597.73
2019-03-06T14:14:33.745Z,100604.45
2019-03-06T14:17:00.927Z,100598.34
2019-03-06T14:19:27.644Z,100586.63
2019-03-06T14:21:54.691Z,100588.20
2019-03-06T14:24:21.581Z,100582.04
2019-03-06T14:26:48.483Z,100584.50
2019-03-06T14:29:15.296Z,100580.25
2019-03-06T14:31:42.788Z,100585.98
2019-03-06T14:34:09.652Z,100581.97
2019-03-06T14:36:36.691Z,100575.23
2019-03-06T14:39:09.149Z,100585.39
2019-03-06T14:41:35.916Z,100587.76
2019-03-06T14:44:02.574Z,100583.70
2019-03-06T14:46:29.622Z,100582.75
2019-03-06T14:48:56.176Z,100582.58
2019-03-06T14:51:22.929Z,100580.69
2019-03-06T14:53:49.511Z,100579.72
2019-03-06T14:56:16.488Z,100583.10
2019-03-06T14:58:43.757Z,100582.73
2019-03-06T15:01:10.572Z,100578.14
2019-03-06T15:03:37.386Z,100578.78
2019-03-06T15:06:04.769Z,100572.66
2019-03-06T15:08:31.664Z,100577.48
2019-03-06T15:10:58.351Z,100575.52
2019-03-06T15:13:25.206Z,100574.82
2019-03-06T15:15:52.278Z,100565.85
2019-03-06T15:18:19.705Z,100570.52
2019-03-06T15:20:46.498Z,100567.55
2019-03-06T15:23:13.240Z,100563.03
2019-03-06T15:25:40.223Z,100566.34
2019-03-06T15:28:07.308Z,100565.41
2019-03-06T15:30:34.236Z,100558.99
2019-03-06T15:33:01.540Z,100554.25
2019-03-06T15:35:28.186Z,100558.22
2019-03-06T15:37:55.091Z,100557.38
2019-03-06T15:40:27.504Z,100556.22
2019-03-06T15:42:54.572Z,100551.31
2019-03-06T15:45:22.800Z,100545.24
2019-03-06T15:47:49.802Z,100552.28
2019-03-06T15:50:17.665Z,100552.51
2019-03-06T15:52:44.886Z,100554.84
2019-03-06T15:55:14.371Z,100554.30
2019-03-06T15:57:41.390Z,100552.56
2019-03-06T16:00:15.002Z,100558.84
2019-03-06T16:02:41.990Z,100548.75
2019-03-06T16:05:14.625Z,100553.91
2019-03-06T16:07:41.302Z,100554.80
2019-03-06T16:10:08.562Z,100560.88
2019-03-06T16:12:35.640Z,100559.73
2019-03-06T16:15:06.767Z,100554.44
2019-03-06T16:17:33.710Z,100547.27
2019-03-06T16:20:00.396Z,100543.87
2019-03-06T16:22:26.965Z,100543.99
2019-03-06T16:24:53.623Z,100540.36
2019-03-06T16:27:20.342Z,100537.42
2019-03-06T16:29:47.131Z,100539.84
2019-03-06T16:32:14.054Z,100541.14
2019-03-06T16:34:42.066Z,100542.58
2019-03-06T16:37:09.301Z,100544.70
2019-03-06T16:39:36.117Z,100542.23
2019-03-06T16:42:03.284Z,100545.78
2019-03-06T16:44:29.986Z,100539.50
2019-03-06T16:47:03.704Z,100539.86
2019-03-06T16:49:25.416Z,100544.05
2019-03-06T16:52:48.568Z,100541.11
2019-03-06T16:55:17.865Z,100543.66
2019-03-06T16:57:45.471Z,100551.09
2019-03-06T17:00:17.366Z,100545.58
2019-03-06T17:02:44.126Z,100546.84
2019-03-06T17:05:16.433Z,100539.48
2019-03-06T17:07:43.540Z,100549.70
2019-03-06T17:10:10.942Z,100546.99
2019-03-06T17:12:37.716Z,100541.30
2019-03-06T17:15:07.940Z,100535.69
2019-03-06T17:17:34.769Z,100537.39
2019-03-06T17:20:03.070Z,100535.61
2019-03-06T17:22:30.134Z,100530.00
2019-03-06T17:24:57.145Z,100538.05
2019-03-06T17:27:24.238Z,100535.15
2019-03-06T17:29:50.967Z,100538.85
2019-03-06T17:32:17.919Z,100531.77
2019-03-06T17:34:45.058Z,100534.42
2019-03-06T17:37:11.852Z,100526.55
2019-03-06T17:39:38.706Z,100517.53
2019-03-06T17:42:05.515Z,100524.00
2019-03-06T17:44:32.596Z,100521.97
2019-03-06T17:46:59.294Z,100520.92
2019-03-06T17:49:26.167Z,100523.79
2019-03-06T17:51:52.863Z,100520.76
2019-03-06T17:54:21.570Z,100518.06
2019-03-06T17:56:48.495Z,100523.36
2019-03-06T17:59:15.253Z,100517.39
2019-03-06T18:01:42.375Z,100512.97
2019-03-06T18:04:11.168Z,100508.85
2019-03-06T18:06:38.132Z,100506.91
2019-03-06T18:09:06.102Z,100507.48
2019-03-06T18:11:35.876Z,100500.81
2019-03-06T18:14:06.247Z,100512.70
2019-03-06T18:16:33.287Z,100503.59
2019-03-06T18:19:00.468Z,100500.18
2019-03-06T18:21:27.314Z,100502.69
2019-03-06T18:23:54.041Z,100502.69
2019-03-06T18:26:20.605Z,100500.11
2019-03-06T18:28:47.481Z,100503.41
2019-03-06T18:31:14.452Z,100496.34
2019-03-06T18:33:46.052Z,100502.52
2019-03-06T18:36:14.368Z,100500.34
2019-03-06T18:38:42.115Z,100500.47
2019-03-06T18:41:09.351Z,100501.37
2019-03-06T18:43:36.203Z,100497.01
2019-03-06T18:46:03.092Z,100494.61
2019-03-06T18:48:30.140Z,100493.34
2019-03-06T18:50:57.169Z,100496.34
2019-03-06T18:53:24.537Z,100500.20
2019-03-06T18:55:51.693Z,100491.06
2019-03-06T18:58:19.217Z,100496.37
2019-03-06T19:00:46.152Z,100483.09
2019-03-06T19:03:13.084Z,100478.54
2019-03-06T19:05:40.380Z,100474.31
2019-03-06T19:08:07.515Z,100470.55
2019-03-06T19:10:34.587Z,100468.28
2019-03-06T19:13:01.490Z,100467.40
2019-03-06T19:15:29.371Z,100468.05
2019-03-06T19:17:56.723Z,100462.39
2019-03-06T19:20:23.850Z,100463.11
2019-03-06T19:22:53.155Z,100458.11
2019-03-06T19:25:20.585Z,100461.55
2019-03-06T19:27:47.922Z,100453.33
2019-03-06T19:30:19.418Z,100452.70
2019-03-06T19:32:46.640Z,100441.93
2019-03-06T19:35:15.371Z,100447.54
2019-03-06T19:37:42.791Z,100441.14
2019-03-06T19:40:13.489Z,100432.77
2019-03-06T19:42:41.038Z,100427.81
2019-03-06T19:45:13.567Z,100429.23
2019-03-06T19:47:43.250Z,100424.55
2019-03-06T19:50:14.722Z,100417.95
2019-03-06T19:52:41.882Z,100424.72
2019-03-06T19:55:11.279Z,100418.52
2019-03-06T19:57:44.034Z,100414.51
2019-03-06T20:00:10.921Z,100418.33
2019-03-06T20:02:38.171Z,100418.72
2019-03-06T20:05:05.383Z,100420.39
2019-03-06T20:07:32.457Z,100418.26
2019-03-06T20:09:59.709Z,100428.05
2019-03-06T20:12:26.438Z,100422.45
2019-03-06T20:14:54.007Z,100424.34
2019-03-06T20:17:21.045Z,100413.07
2019-03-06T20:19:49.282Z,100409.73
2019-03-06T20:22:16.757Z,100404.01
2019-03-06T20:24:45.645Z,100402.17
2019-03-06T20:27:12.628Z,100406.98
2019-03-06T20:29:39.555Z,100401.25
2019-03-06T20:32:06.548Z,100396.63
2019-03-06T20:34:33.386Z,100393.26
2019-03-06T20:37:04.082Z,100388.14
2019-03-06T20:39:31.547Z,100390.25
2019-03-06T20:41:58.618Z,100384.31
2019-03-06T20:44:25.540Z,100383.00
2019-03-06T20:46:52.372Z,100390.73
2019-03-06T20:49:19.382Z,100388.59
2019-03-06T20:51:47.024Z,100385.73
2019-03-06T20:54:13.982Z,100373.66
2019-03-06T20:56:41.088Z,100375.87
2019-03-06T20:59:08.153Z,100372.48
2019-03-06T21:01:36.072Z,100367.70
2019-03-06T21:04:03.257Z,100365.48
2019-03-06T21:06:33.438Z,100356.31
2019-03-06T21:08:58.544Z,100350.45
2019-03-06T21:11:26.031Z,100345.72
2019-03-06T21:13:52.587Z,100341.46
2019-03-06T21:16:20.022Z,100345.77
2019-03-06T21:18:46.910Z,100336.78
2019-03-06T21:21:15.070Z,100348.00
2019-03-06T21:23:42.131Z,100343.34
2019-03-06T21:26:09.077Z,100345.44
2019-03-06T21:28:35.831Z,100335.17
2019-03-06T21:31:02.635Z,100336.78
2019-03-06T21:33:29.595Z,100335.47
2019-03-06T21:35:56.382Z,100330.28
2019-03-06T21:38:23.231Z,100336.00
2019-03-06T21:40:50.108Z,100329.52
2019-03-06T21:43:16.917Z,100331.59
2019-03-06T21:45:43.644Z,100326.48
2019-03-06T21:48:10.417Z,100328.28
2019-03-06T21:50:37.658Z,100325.24
2019-03-06T21:53:04.682Z,100316.20
2019-03-06T21:55:31.602Z,100311.43
2019-03-06T21:57:58.247Z,100311.78
2019-03-06T22:00:25.258Z,100313.22
2019-03-06T22:02:52.230Z,100312.81
2019-03-06T22:05:19.247Z,100304.05
2019-03-06T22:07:46.260Z,100300.20
2019-03-06T22:10:16.362Z,100305.34
2019-03-06T22:12:43.827Z,100300.67
2019-03-06T22:15:15.184Z,100302.89
2019-03-06T22:17:42.058Z,100290.72
2019-03-06T22:20:12.281Z,100292.89
2019-03-06T22:22:39.179Z,100284.73
2019-03-06T22:25:11.701Z,100276.53
2019-03-06T22:27:38.477Z,100271.31
2019-03-06T22:30:10.984Z,100271.77
2019-03-06T22:32:37.940Z,100271.25
2019-03-06T22:35:06.202Z,100272.39
2019-03-06T22:37:32.944Z,100272.11
2019-03-06T22:39:59.654Z,100269.52
2019-03-06T22:42:26.472Z,100269.48
2019-03-06T22:44:53.081Z,100259.77
2019-03-06T22:47:19.954Z,100254.69
2019-03-06T22:49:46.567Z,100259.90
2019-03-06T22:52:13.196Z,100256.98
2019-03-06T22:54:41.144Z,100249.74
2019-03-06T22:57:07.924Z,100243.78
2019-03-06T22:59:35.296Z,100239.33
2019-03-06T23:02:02.193Z,100230.46
2019-03-06T23:04:29.613Z,100225.94
2019-03-06T23:06:56.505Z,100222.06
2019-03-06T23:09:23.152Z,100223.56
2019-03-06T23:11:50.028Z,100218.89
2019-03-06T23:14:16.823Z,100214.89
2019-03-06T23:16:43.616Z,100207.59
2019-03-06T23:19:10.325Z,100200.72
2019-03-06T23:21:37.130Z,100197.69
2019-03-06T23:24:04.018Z,100183.23
2019-03-06T23:26:30.751Z,100183.46
2019-03-06T23:28:57.432Z,100176.00
2019-03-06T23:31:23.995Z,100175.80
2019-03-06T23:33:50.777Z,100170.98
2019-03-06T23:36:18.599Z,100170.59
2019-03-06T23:38:45.435Z,100172.92
2019-03-06T23:41:12.059Z,100161.23
2019-03-06T23:43:38.750Z,100165.72
2019-03-06T23:46:05.628Z,100157.06
2019-03-06T23:48:32.333Z,100146.47
2019-03-06T23:51:00.915Z,100150.52
2019-03-06T23:53:29.641Z,100134.83
2019-03-06T23:55:56.558Z,100138.67
2019-03-06T23:58:23.299Z,100129.62
